createdAt,value
2022-09-16T00:00:35.914Z,13.50
2022-09-16T00:03:22.397Z,13.60
2022-09-16T00:06:16.466Z,13.70
2022-09-16T00:09:02.326Z,13.70
2022-09-16T00:11:47.684Z,13.70
2022-09-16T00:14:33.270Z,13.60
2022-09-16T00:17:19.028Z,13.60
2022-09-16T00:20:06.047Z,13.50
2022-09-16T00:22:51.609Z,13.40
2022-09-16T00:25:36.961Z,13.40
2022-09-16T00:28:23.670Z,13.40
2022-09-16T00:31:10.222Z,13.60
2022-09-16T00:33:56.095Z,13.60
2022-09-16T00:36:41.499Z,13.60
2022-09-16T00:39:27.023Z,13.60
2022-09-16T00:42:12.538Z,13.60
2022-09-16T00:45:04.813Z,13.60
2022-09-16T00:47:58.709Z,13.40
2022-09-16T00:50:49.452Z,13.00
2022-09-16T00:53:43.032Z,12.90
2022-09-16T00:56:30.902Z,12.70
2022-09-16T00:59:28.320Z,12.60
2022-09-16T01:02:19.505Z,12.70
2022-09-16T01:05:11.462Z,13.00
2022-09-16T01:07:58.344Z,13.10
2022-09-16T01:10:43.857Z,13.20
2022-09-16T01:13:29.857Z,13.30
2022-09-16T01:16:21.374Z,13.50
2022-09-16T01:19:26.404Z,13.60
2022-09-16T01:22:46.110Z,13.70
2022-09-16T01:25:38.247Z,13.60
2022-09-16T01:28:42.020Z,13.60
2022-09-16T01:31:52.674Z,13.40
2022-09-16T01:35:13.596Z,13.50
2022-09-16T01:38:02.222Z,13.50
2022-09-16T01:40:59.554Z,13.50
2022-09-16T01:44:02.261Z,13.50
2022-09-16T01:47:11.156Z,13.50
2022-09-16T01:50:15.356Z,13.50
2022-09-16T01:53:18.528Z,13.60
2022-09-16T01:56:12.646Z,13.50
2022-09-16T01:59:05.128Z,13.50
2022-09-16T02:01:56.543Z,13.30
2022-09-16T02:04:49.273Z,13.20
2022-09-16T02:07:40.242Z,13.20
2022-09-16T02:10:33.168Z,13.20
2022-09-16T02:13:29.099Z,13.20
2022-09-16T02:16:24.918Z,13.20
2022-09-16T02:19:15.696Z,13.30
2022-09-16T02:22:08.249Z,13.30
2022-09-16T02:24:54.195Z,13.40
2022-09-16T02:27:42.073Z,13.40
2022-09-16T02:30:27.651Z,13.40
2022-09-16T02:33:14.838Z,13.40
2022-09-16T02:36:02.850Z,13.40
2022-09-16T02:38:54.561Z,13.30
2022-09-16T02:41:41.119Z,13.40
2022-09-16T02:44:26.955Z,13.40
2022-09-16T02:47:24.793Z,13.50
2022-09-16T02:50:15.995Z,13.60
2022-09-16T02:53:01.503Z,13.60
2022-09-16T02:55:55.753Z,13.80
2022-09-16T02:58:41.798Z,14.00
2022-09-16T03:01:31.870Z,14.10
2022-09-16T03:04:19.895Z,14.20
2022-09-16T03:07:08.248Z,14.20
2022-09-16T03:09:54.111Z,14.30
2022-09-16T03:12:56.720Z,14.30
2022-09-16T03:15:42.501Z,14.30
2022-09-16T03:18:49.632Z,14.40
2022-09-16T03:21:47.955Z,14.40
2022-09-16T03:24:54.529Z,14.30
2022-09-16T03:27:52.448Z,14.10
2022-09-16T03:31:06.182Z,14.00
2022-09-16T03:34:23.993Z,13.90
2022-09-16T03:37:13.163Z,13.80
2022-09-16T03:40:00.259Z,13.80
2022-09-16T03:42:46.232Z,13.70
2022-09-16T03:45:32.101Z,13.70
2022-09-16T03:48:17.776Z,13.80
2022-09-16T03:51:03.660Z,13.90
2022-09-16T03:53:49.933Z,13.90
2022-09-16T03:56:35.418Z,14.00
2022-09-16T03:59:20.896Z,14.00
2022-09-16T04:02:06.369Z,14.10
2022-09-16T04:04:52.429Z,14.10
2022-09-16T04:07:39.870Z,14.10
2022-09-16T04:10:25.480Z,14.20
2022-09-16T04:13:11.083Z,14.20
2022-09-16T04:15:56.829Z,14.10
2022-09-16T04:18:42.743Z,14.20
2022-09-16T04:21:29.368Z,14.20
2022-09-16T04:24:14.798Z,14.30
2022-09-16T04:27:00.175Z,14.40
2022-09-16T04:29:45.701Z,14.50
2022-09-16T04:32:31.133Z,14.60
2022-09-16T04:35:19.476Z,14.70
2022-09-16T04:38:05.267Z,14.80
2022-09-16T04:40:53.110Z,14.90
2022-09-16T04:43:40.919Z,14.80
2022-09-16T04:46:28.616Z,14.60
2022-09-16T04:49:14.143Z,14.70
2022-09-16T04:51:59.832Z,14.70
2022-09-16T04:54:45.331Z,14.60
2022-09-16T04:57:34.581Z,14.60
2022-09-16T05:00:20.452Z,14.60
2022-09-16T05:03:06.849Z,14.60
2022-09-16T05:05:52.822Z,14.60
2022-09-16T05:08:39.379Z,14.60
2022-09-16T05:11:27.614Z,14.60
2022-09-16T05:14:16.042Z,14.60
2022-09-16T05:17:01.682Z,14.70
2022-09-16T05:19:47.536Z,14.70
2022-09-16T05:22:32.681Z,14.70
2022-09-16T05:25:18.556Z,14.70
2022-09-16T05:28:04.184Z,14.70
2022-09-16T05:30:49.767Z,14.70
2022-09-16T05:33:35.470Z,14.70
2022-09-16T05:36:21.610Z,14.80
2022-09-16T05:39:24.554Z,14.80
2022-09-16T05:42:13.698Z,14.80
2022-09-16T05:44:59.335Z,14.80
2022-09-16T05:47:49.011Z,14.80
2022-09-16T05:50:34.475Z,14.80
2022-09-16T05:53:19.866Z,14.90
2022-09-16T05:56:08.740Z,14.90
2022-09-16T05:58:56.433Z,14.90
2022-09-16T06:01:42.659Z,14.90
2022-09-16T06:04:28.351Z,15.00
2022-09-16T06:07:13.878Z,15.00
2022-09-16T06:09:59.095Z,15.00
2022-09-16T06:12:44.968Z,15.10
2022-09-16T06:15:31.475Z,15.10
2022-09-16T06:18:18.795Z,15.00
2022-09-16T06:21:10.727Z,15.10
2022-09-16T06:23:57.114Z,15.10
2022-09-16T06:26:43.836Z,15.10
2022-09-16T06:29:29.264Z,15.10
2022-09-16T06:32:15.292Z,15.10
2022-09-16T06:35:00.738Z,15.10
2022-09-16T06:37:46.233Z,15.20
2022-09-16T06:40:32.282Z,15.20
2022-09-16T06:43:17.713Z,15.20
2022-09-16T06:46:18.384Z,15.20
2022-09-16T06:49:06.074Z,15.20
2022-09-16T06:51:52.186Z,15.20
2022-09-16T06:54:37.678Z,15.20
2022-09-16T06:57:23.644Z,15.30
2022-09-16T07:00:09.887Z,15.20
2022-09-16T07:02:55.204Z,15.20
2022-09-16T07:05:40.943Z,15.10
2022-09-16T07:08:28.717Z,15.20
2022-09-16T07:11:20.041Z,15.20
2022-09-16T07:14:05.553Z,15.30
2022-09-16T07:16:51.265Z,15.30
2022-09-16T07:19:37.882Z,15.20
2022-09-16T07:22:23.411Z,15.10
2022-09-16T07:25:09.193Z,15.00
2022-09-16T07:27:54.765Z,14.80
2022-09-16T07:30:41.150Z,14.90
2022-09-16T07:33:26.721Z,14.70
2022-09-16T07:36:14.884Z,14.80
2022-09-16T07:39:01.223Z,14.60
2022-09-16T07:41:50.720Z,14.50
2022-09-16T07:44:35.895Z,14.50
2022-09-16T07:47:22.337Z,14.40
2022-09-16T07:50:08.260Z,14.40
2022-09-16T07:52:56.997Z,14.30
2022-09-16T07:55:42.032Z,14.40
2022-09-16T07:58:27.527Z,14.60
2022-09-16T08:01:15.157Z,14.70
2022-09-16T08:04:01.046Z,14.70
2022-09-16T08:06:47.124Z,14.80
2022-09-16T08:09:42.300Z,14.90
2022-09-16T08:12:33.524Z,15.00
2022-09-16T08:18:11.221Z,14.60
2022-09-16T08:20:57.297Z,14.40
2022-09-16T08:23:43.617Z,14.30
2022-09-16T08:26:29.375Z,14.30
2022-09-16T08:29:14.827Z,14.50
2022-09-16T08:32:00.823Z,14.60
2022-09-16T08:34:46.420Z,14.70
2022-09-16T08:37:32.164Z,14.70
2022-09-16T08:43:29.218Z,15.00
2022-09-16T08:46:34.718Z,15.30
2022-09-16T08:49:26.747Z,15.50
2022-09-16T08:52:16.627Z,15.50
2022-09-16T08:55:08.507Z,15.50
2022-09-16T08:58:10.812Z,15.50
2022-09-16T09:01:04.965Z,15.40
2022-09-16T09:03:50.634Z,15.50
2022-09-16T09:07:01.807Z,15.80
2022-09-16T09:09:56.537Z,16.30
2022-09-16T09:13:36.902Z,16.30
2022-09-16T09:16:35.700Z,16.20
2022-09-16T09:19:31.392Z,16.40
2022-09-16T09:22:41.398Z,16.50
2022-09-16T09:25:53.324Z,16.50
2022-09-16T09:28:47.906Z,16.50
2022-09-16T09:31:43.277Z,16.60
2022-09-16T09:34:52.659Z,16.40
2022-09-16T09:37:45.969Z,16.00
2022-09-16T09:40:37.841Z,15.80
2022-09-16T09:43:23.193Z,15.70
2022-09-16T09:46:26.446Z,16.10
2022-09-16T09:49:36.038Z,15.70
2022-09-16T09:52:47.817Z,15.70
2022-09-16T09:55:35.012Z,16.00
2022-09-16T09:58:41.799Z,15.80
2022-09-16T10:01:27.633Z,16.00
2022-09-16T10:04:15.557Z,16.00
2022-09-16T10:10:17.901Z,16.20
2022-09-16T10:13:11.313Z,16.30
2022-09-16T10:16:13.187Z,16.20
2022-09-16T10:19:06.149Z,16.20
2022-09-16T10:22:07.918Z,16.30
2022-09-16T10:25:01.980Z,16.50
2022-09-16T10:27:56.298Z,16.40
2022-09-16T10:30:51.606Z,16.30
2022-09-16T10:33:44.732Z,16.60
2022-09-16T10:36:34.415Z,16.80
2022-09-16T10:39:25.700Z,16.70
2022-09-16T10:42:28.638Z,16.80
2022-09-16T10:45:31.610Z,16.80
2022-09-16T10:48:23.416Z,16.80
2022-09-16T10:51:24.982Z,16.70
2022-09-16T10:54:28.154Z,16.70
2022-09-16T10:57:24.356Z,16.80
2022-09-16T11:00:35.381Z,16.90
2022-09-16T11:03:50.089Z,17.10
2022-09-16T11:06:59.738Z,17.10
2022-09-16T11:09:58.090Z,17.10
2022-09-16T11:13:09.772Z,17.10
2022-09-16T11:16:30.785Z,16.60
2022-09-16T11:19:45.586Z,16.00
2022-09-16T11:22:46.481Z,15.80
2022-09-16T11:26:00.619Z,15.80
2022-09-16T11:28:49.284Z,16.00
2022-09-16T11:31:50.483Z,16.20
2022-09-16T11:35:17.445Z,16.30
2022-09-16T11:38:09.291Z,16.30
2022-09-16T11:41:27.387Z,16.40
2022-09-16T11:44:45.212Z,16.50
2022-09-16T11:48:05.070Z,16.50
2022-09-16T11:51:19.130Z,16.60
2022-09-16T11:54:10.728Z,16.60
2022-09-16T11:57:01.806Z,16.60
2022-09-16T12:00:02.152Z,16.50
2022-09-16T12:03:39.843Z,16.50
2022-09-16T12:06:30.807Z,16.40
2022-09-16T12:09:29.682Z,16.40
2022-09-16T12:12:20.043Z,16.40
2022-09-16T12:15:28.283Z,16.50
2022-09-16T12:18:19.544Z,16.50
2022-09-16T12:21:15.079Z,16.50
2022-09-16T12:24:24.591Z,16.40
2022-09-16T12:27:37.327Z,16.30
2022-09-16T12:30:28.612Z,16.30
2022-09-16T12:33:29.108Z,16.30
2022-09-16T12:36:20.420Z,16.30
2022-09-16T12:39:11.328Z,16.30
2022-09-16T12:42:05.746Z,16.20
2022-09-16T12:45:10.267Z,16.20
2022-09-16T12:48:07.919Z,16.10
2022-09-16T12:51:24.234Z,16.00
2022-09-16T12:55:06.624Z,15.90
2022-09-16T12:58:29.893Z,15.80
2022-09-16T13:01:24.857Z,15.70
2022-09-16T13:04:19.623Z,15.60
2022-09-16T13:07:05.783Z,15.70
2022-09-16T13:10:09.646Z,15.80
2022-09-16T13:12:57.112Z,15.90
2022-09-16T13:15:45.016Z,16.00
2022-09-16T13:18:45.994Z,16.00
2022-09-16T13:21:47.362Z,16.00
2022-09-16T13:25:06.642Z,16.00
2022-09-16T13:28:22.119Z,16.10
2022-09-16T13:31:14.280Z,16.00
2022-09-16T13:33:59.800Z,16.10
2022-09-16T13:36:45.532Z,16.10
2022-09-16T13:39:33.757Z,16.10
2022-09-16T13:42:21.205Z,16.00
2022-09-16T13:45:33.466Z,16.00
2022-09-16T13:48:23.415Z,16.00
2022-09-16T13:51:20.037Z,16.00
2022-09-16T13:54:18.697Z,16.10
2022-09-16T13:57:16.236Z,15.90
2022-09-16T14:00:24.295Z,16.10
2022-09-16T14:03:25.842Z,16.30
2022-09-16T14:06:27.599Z,16.50
2022-09-16T14:10:04.599Z,16.60
2022-09-16T14:13:16.556Z,16.60
2022-09-16T14:16:02.698Z,16.80
2022-09-16T14:19:08.037Z,16.90
2022-09-16T14:22:17.227Z,16.90
2022-09-16T14:25:12.762Z,16.90
2022-09-16T14:28:21.497Z,17.00
2022-09-16T14:31:14.535Z,17.10
2022-09-16T14:34:06.731Z,17.10
2022-09-16T14:36:53.675Z,17.10
2022-09-16T14:39:42.922Z,16.90
2022-09-16T14:42:30.328Z,16.80
2022-09-16T14:45:17.994Z,16.80
2022-09-16T14:48:09.260Z,16.80
2022-09-16T14:50:56.019Z,16.90
2022-09-16T14:53:49.802Z,16.70
2022-09-16T14:57:06.466Z,16.80
2022-09-16T14:59:56.231Z,16.90
2022-09-16T15:02:53.318Z,16.90
2022-09-16T15:05:44.643Z,16.90
2022-09-16T15:08:36.032Z,16.80
2022-09-16T15:11:46.477Z,16.80
2022-09-16T15:14:31.861Z,16.80
2022-09-16T15:17:20.886Z,16.70
2022-09-16T15:20:06.776Z,16.80
2022-09-16T15:22:53.633Z,16.90
2022-09-16T15:25:39.247Z,16.90
2022-09-16T15:28:25.670Z,16.90
2022-09-16T15:31:12.829Z,16.70
2022-09-16T15:34:00.106Z,16.70
2022-09-16T15:36:48.967Z,16.70
2022-09-16T15:39:38.661Z,16.60
2022-09-16T15:42:24.382Z,16.50
2022-09-16T15:45:19.939Z,16.50
2022-09-16T15:48:17.431Z,16.50
2022-09-16T15:51:20.396Z,16.40
2022-09-16T15:54:19.526Z,16.40
2022-09-16T15:57:17.594Z,16.50
2022-09-16T16:00:14.089Z,16.40
2022-09-16T16:03:05.113Z,16.40
2022-09-16T16:05:52.874Z,16.40
2022-09-16T16:08:52.721Z,16.40
2022-09-16T16:11:40.641Z,16.30
2022-09-16T16:14:32.351Z,16.30
2022-09-16T16:17:20.856Z,16.30
2022-09-16T16:20:07.606Z,16.30
2022-09-16T16:22:53.679Z,16.30
2022-09-16T16:25:39.577Z,16.20
2022-09-16T16:28:25.020Z,16.20
2022-09-16T16:31:16.436Z,16.10
2022-09-16T16:34:02.774Z,16.10
2022-09-16T16:36:48.164Z,16.10
2022-09-16T16:39:34.905Z,16.00
2022-09-16T16:42:22.123Z,16.00
2022-09-16T16:45:08.439Z,15.90
2022-09-16T16:47:54.328Z,15.90
2022-09-16T16:50:39.927Z,15.90
2022-09-16T16:53:26.538Z,15.80
2022-09-16T16:56:15.455Z,15.90
2022-09-16T16:59:01.369Z,15.90
2022-09-16T17:01:50.447Z,15.90
2022-09-16T17:04:36.735Z,15.90
2022-09-16T17:07:26.164Z,15.90
2022-09-16T17:10:12.858Z,15.80
2022-09-16T17:12:58.843Z,15.70
2022-09-16T17:15:44.847Z,15.70
2022-09-16T17:18:30.368Z,15.70
2022-09-16T17:21:28.311Z,15.60
2022-09-16T17:24:14.086Z,15.50
2022-09-16T17:27:00.274Z,15.50
2022-09-16T17:29:46.111Z,15.50
2022-09-16T17:32:31.764Z,15.40
2022-09-16T17:35:17.245Z,15.40
2022-09-16T17:38:06.810Z,15.40
2022-09-16T17:40:52.748Z,15.30
2022-09-16T17:43:39.899Z,15.40
2022-09-16T17:46:29.713Z,15.40
2022-09-16T17:49:16.785Z,15.40
2022-09-16T17:52:02.752Z,15.40
2022-09-16T17:54:48.614Z,15.40
2022-09-16T17:57:34.161Z,15.30
2022-09-16T18:00:20.066Z,15.30
2022-09-16T18:03:06.765Z,15.20
2022-09-16T18:05:53.476Z,15.10
2022-09-16T18:08:40.078Z,15.10
2022-09-16T18:11:25.719Z,15.00
2022-09-16T18:14:13.300Z,14.80
2022-09-16T18:16:59.837Z,14.80
2022-09-16T18:19:45.389Z,14.70
2022-09-16T18:22:31.063Z,14.70
2022-09-16T18:25:16.479Z,14.60
2022-09-16T18:28:02.101Z,14.50
2022-09-16T18:30:47.847Z,14.40
2022-09-16T18:33:33.833Z,14.30
2022-09-16T18:36:19.593Z,14.20
2022-09-16T18:39:06.064Z,14.20
2022-09-16T18:41:51.742Z,14.20
2022-09-16T18:44:37.584Z,14.20
2022-09-16T18:47:23.466Z,14.20
2022-09-16T18:50:09.355Z,14.20
2022-09-16T18:52:54.679Z,14.20
2022-09-16T18:55:40.317Z,14.20
2022-09-16T18:58:25.807Z,14.10
2022-09-16T19:01:27.385Z,14.10
2022-09-16T19:04:13.073Z,14.00
2022-09-16T19:07:05.997Z,14.00
2022-09-16T19:09:51.875Z,13.90
2022-09-16T19:12:39.341Z,13.90
2022-09-16T19:15:25.152Z,13.80
2022-09-16T19:18:12.427Z,13.80
2022-09-16T19:20:58.089Z,13.80
2022-09-16T19:23:58.793Z,13.70
2022-09-16T19:26:46.201Z,13.60
2022-09-16T19:29:32.625Z,13.60
2022-09-16T19:32:18.696Z,13.60
2022-09-16T19:35:04.602Z,13.60
2022-09-16T19:37:51.139Z,13.50
2022-09-16T19:40:36.964Z,13.50
2022-09-16T19:43:22.546Z,13.50
2022-09-16T19:46:13.148Z,13.50
2022-09-16T19:48:59.029Z,13.50
2022-09-16T19:51:44.958Z,13.50
2022-09-16T19:54:31.173Z,13.60
2022-09-16T19:57:16.624Z,13.60
2022-09-16T20:00:04.669Z,13.60
2022-09-16T20:02:58.207Z,13.50
2022-09-16T20:05:43.884Z,13.70
2022-09-16T20:08:29.927Z,13.70
2022-09-16T20:11:18.274Z,13.70
2022-09-16T20:14:06.676Z,13.70
2022-09-16T20:16:52.737Z,13.70
2022-09-16T20:19:38.212Z,13.70
2022-09-16T20:22:23.704Z,13.70
2022-09-16T20:25:22.372Z,13.60
2022-09-16T20:28:08.709Z,13.60
2022-09-16T20:30:54.311Z,13.70
2022-09-16T20:33:40.927Z,13.70
2022-09-16T20:36:30.438Z,13.60
2022-09-16T20:39:16.544Z,13.60
2022-09-16T20:42:02.054Z,13.60
2022-09-16T20:44:49.464Z,13.60
2022-09-16T20:47:35.563Z,13.60
2022-09-16T20:50:20.774Z,13.70
2022-09-16T20:53:06.397Z,13.70
2022-09-16T20:55:51.987Z,13.70
2022-09-16T20:58:37.704Z,13.60
2022-09-16T21:01:28.683Z,13.60
2022-09-16T21:04:17.420Z,13.60
2022-09-16T21:07:02.747Z,13.60
2022-09-16T21:09:48.287Z,13.60
2022-09-16T21:12:35.554Z,13.60
2022-09-16T21:15:21.590Z,13.60
2022-09-16T21:18:06.957Z,13.60
2022-09-16T21:21:08.122Z,13.60
2022-09-16T21:23:56.478Z,13.60
2022-09-16T21:26:43.886Z,13.60
2022-09-16T21:29:31.088Z,13.50
2022-09-16T21:32:16.516Z,13.30
2022-09-16T21:35:02.133Z,13.40
2022-09-16T21:37:47.718Z,13.40
2022-09-16T21:40:36.477Z,13.40
2022-09-16T21:43:27.441Z,13.40
2022-09-16T21:46:15.597Z,13.40
2022-09-16T21:49:03.205Z,13.40
2022-09-16T21:51:49.239Z,13.40
2022-09-16T21:54:35.120Z,13.40
2022-09-16T21:57:20.891Z,13.40
2022-09-16T22:00:07.553Z,13.30
2022-09-16T22:02:57.342Z,13.30
2022-09-16T22:05:43.292Z,13.30
2022-09-16T22:08:28.995Z,13.20
2022-09-16T22:11:17.224Z,13.20
2022-09-16T22:14:03.204Z,13.20
2022-09-16T22:16:48.801Z,13.20
2022-09-16T22:19:34.269Z,13.20
2022-09-16T22:22:21.455Z,13.10
2022-09-16T22:25:07.380Z,13.10
2022-09-16T22:27:52.710Z,13.10
2022-09-16T22:30:38.404Z,13.10
2022-09-16T22:33:24.171Z,13.00
2022-09-16T22:36:11.841Z,13.00
2022-09-16T22:39:11.108Z,13.00
2022-09-16T22:41:56.946Z,13.00
2022-09-16T22:44:42.362Z,13.00
2022-09-16T22:47:28.115Z,13.00
2022-09-16T22:50:13.883Z,12.90
2022-09-16T22:53:00.560Z,12.80
2022-09-16T22:55:46.197Z,12.80
2022-09-16T22:58:32.573Z,12.80
2022-09-16T23:01:21.271Z,12.80
2022-09-16T23:04:08.458Z,12.80
2022-09-16T23:06:53.943Z,12.80
2022-09-16T23:09:39.674Z,12.80
2022-09-16T23:12:25.619Z,12.70
2022-09-16T23:15:11.511Z,12.80
2022-09-16T23:17:57.073Z,12.80
2022-09-16T23:20:42.604Z,12.80
2022-09-16T23:23:29.825Z,12.80
2022-09-16T23:26:19.116Z,12.80
2022-09-16T23:29:07.664Z,12.60
2022-09-16T23:31:53.126Z,12.70
2022-09-16T23:34:38.762Z,12.70
2022-09-16T23:37:24.430Z,12.60
2022-09-16T23:40:10.235Z,12.70
2022-09-16T23:42:56.281Z,12.70
2022-09-16T23:45:42.291Z,12.70
2022-09-16T23:48:28.522Z,12.60
2022-09-16T23:51:14.378Z,12.60
2022-09-16T23:54:00.808Z,12.60
2022-09-16T23:56:46.899Z,12.60
2022-09-16T23:59:32.345Z,12.60
